createdAt,value
2018-02-09T00:01:42.152Z,96210.61
2018-02-09T00:04:09.736Z,96209.67
2018-02-09T00:06:37.328Z,96209.73
2018-02-09T00:09:05.278Z,96181.71
2018-02-09T00:11:33.015Z,96207.21
2018-02-09T00:14:00.600Z,96208.70
2018-02-09T00:16:28.167Z,96208.94
2018-02-09T00:18:55.731Z,96213.68
2018-02-09T00:21:23.365Z,96211.73
2018-02-09T00:23:50.971Z,96206.86
2018-02-09T00:26:18.551Z,96204.89
2018-02-09T00:28:46.145Z,96205.97
2018-02-09T00:31:14.240Z,96207.00
2018-02-09T00:33:41.845Z,96209.05
2018-02-09T00:36:09.464Z,96210.78
2018-02-09T00:38:37.023Z,96205.81
2018-02-09T00:41:04.902Z,96207.84
2018-02-09T00:43:32.737Z,96206.16
2018-02-09T00:46:00.329Z,96213.19
2018-02-09T00:48:27.900Z,96210.08
2018-02-09T00:50:55.535Z,96208.74
2018-02-09T00:53:23.147Z,96208.13
2018-02-09T00:55:50.713Z,96215.44
2018-02-09T00:58:18.292Z,96208.91
2018-02-09T01:00:45.878Z,96211.80
2018-02-09T01:03:14.607Z,96210.45
2018-02-09T01:05:42.232Z,96209.77
2018-02-09T01:08:10.010Z,96206.30
2018-02-09T01:10:37.567Z,96203.19
2018-02-09T01:13:05.458Z,96205.97
2018-02-09T01:15:33.037Z,96197.63
2018-02-09T01:18:00.629Z,96202.72
2018-02-09T01:20:28.198Z,96202.67
2018-02-09T01:22:55.783Z,96197.70
2018-02-09T01:25:24.184Z,96198.61
2018-02-09T01:27:51.744Z,96199.18
2018-02-09T01:30:19.323Z,96195.86
2018-02-09T01:32:46.907Z,96197.20
2018-02-09T01:35:14.905Z,96192.38
2018-02-09T01:37:42.474Z,96192.09
2018-02-09T01:40:10.067Z,96190.60
2018-02-09T01:42:37.637Z,96190.47
2018-02-09T01:45:05.904Z,96185.70
2018-02-09T01:47:33.508Z,96188.06
2018-02-09T01:50:12.832Z,96187.30
2018-02-09T01:52:40.407Z,96183.35
2018-02-09T01:55:08.235Z,96183.35
2018-02-09T01:57:35.909Z,96190.10
2018-02-09T02:00:03.789Z,96187.01
2018-02-09T02:02:31.373Z,96188.14
2018-02-09T02:04:58.941Z,96183.45
2018-02-09T02:07:26.997Z,96181.97
2018-02-09T02:09:54.644Z,96182.00
2018-02-09T02:12:22.214Z,96180.16
2018-02-09T02:14:49.813Z,96179.86
2018-02-09T02:17:17.900Z,96185.19
2018-02-09T02:19:45.496Z,96175.47
2018-02-09T02:22:13.047Z,96175.17
2018-02-09T02:24:40.686Z,96173.05
2018-02-09T02:27:08.398Z,96180.69
2018-02-09T02:29:35.942Z,96170.05
2018-02-09T02:32:03.524Z,96172.28
2018-02-09T02:34:31.142Z,96171.17
2018-02-09T02:36:58.733Z,96169.67
2018-02-09T02:39:26.301Z,96170.03
2018-02-09T02:41:54.103Z,96171.95
2018-02-09T02:44:21.676Z,96162.36
2018-02-09T02:46:49.568Z,96166.35
2018-02-09T02:49:18.493Z,96157.80
2018-02-09T02:51:46.087Z,96159.98
2018-02-09T02:54:13.750Z,96160.81
2018-02-09T02:56:41.486Z,96158.30
2018-02-09T02:59:09.571Z,96155.19
2018-02-09T03:01:37.574Z,96160.11
2018-02-09T03:04:05.720Z,96151.49
2018-02-09T03:06:33.391Z,96155.27
2018-02-09T03:09:00.977Z,96155.38
2018-02-09T03:11:28.535Z,96149.36
2018-02-09T03:14:01.436Z,96147.88
2018-02-09T03:16:30.876Z,96143.59
2018-02-09T03:18:58.632Z,96150.87
2018-02-09T03:21:26.269Z,96155.84
2018-02-09T03:23:54.496Z,96151.75
2018-02-09T03:26:25.985Z,96153.18
2018-02-09T03:28:53.568Z,96156.45
2018-02-09T03:31:21.544Z,96161.75
2018-02-09T03:33:49.470Z,96156.55
2018-02-09T03:36:17.174Z,96155.89
2018-02-09T03:38:44.764Z,96154.70
2018-02-09T03:41:14.782Z,96155.09
2018-02-09T03:43:44.414Z,96155.29
2018-02-09T03:46:12.008Z,96154.92
2018-02-09T03:48:42.143Z,96155.60
2018-02-09T03:51:13.664Z,96158.39
2018-02-09T03:53:43.190Z,96159.77
2018-02-09T03:56:11.208Z,96160.94
2018-02-09T03:58:38.840Z,96159.64
2018-02-09T04:01:07.071Z,96158.59
2018-02-09T04:03:34.719Z,96161.04
2018-02-09T04:06:02.313Z,96154.91
2018-02-09T04:08:29.918Z,96159.25
2018-02-09T04:10:57.527Z,96163.52
2018-02-09T04:13:25.176Z,96160.80
2018-02-09T04:15:52.756Z,96157.28
2018-02-09T04:18:20.356Z,96162.76
2018-02-09T04:20:47.997Z,96155.55
2018-02-09T04:23:15.568Z,96165.41
2018-02-09T04:25:43.175Z,96161.14
2018-02-09T04:28:10.776Z,96157.98
2018-02-09T04:30:38.362Z,96158.14
2018-02-09T04:33:07.509Z,96160.01
2018-02-09T04:35:35.257Z,96154.91
2018-02-09T04:38:02.948Z,96151.12
2018-02-09T04:40:31.574Z,96146.91
2018-02-09T04:42:59.148Z,96151.08
2018-02-09T04:45:26.811Z,96144.75
2018-02-09T04:47:54.383Z,96142.05
2018-02-09T04:50:22.040Z,96145.79
2018-02-09T04:52:49.964Z,96149.22
2018-02-09T04:55:17.581Z,96145.39
2018-02-09T04:57:45.144Z,96142.99
2018-02-09T05:02:44.450Z,96145.12
2018-02-09T05:05:12.362Z,96141.94
2018-02-09T05:07:39.950Z,96138.19
2018-02-09T05:10:07.514Z,96141.46
2018-02-09T05:12:35.110Z,96133.99
2018-02-09T05:15:02.724Z,96136.54
2018-02-09T05:17:30.288Z,96135.97
2018-02-09T05:19:57.896Z,96129.68
2018-02-09T05:22:25.497Z,96137.66
2018-02-09T05:24:53.093Z,96139.26
2018-02-09T05:27:21.946Z,96136.56
2018-02-09T05:29:49.538Z,96133.67
2018-02-09T05:32:17.147Z,96135.08
2018-02-09T05:34:44.739Z,96130.73
2018-02-09T05:37:12.321Z,96133.02
2018-02-09T05:39:39.888Z,96134.82
2018-02-09T05:42:07.594Z,96138.23
2018-02-09T05:44:35.176Z,96136.61
2018-02-09T05:47:02.736Z,96140.97
2018-02-09T05:49:30.382Z,96138.03
2018-02-09T05:51:57.952Z,96140.05
2018-02-09T05:54:25.984Z,96143.63
2018-02-09T05:56:53.961Z,96147.48
2018-02-09T05:59:22.361Z,96152.08
2018-02-09T06:01:50.013Z,96148.64
2018-02-09T06:04:17.673Z,96143.39
2018-02-09T06:06:45.260Z,96142.99
2018-02-09T06:09:12.841Z,96141.58
2018-02-09T06:11:40.407Z,96146.28
2018-02-09T06:14:08.048Z,96139.89
2018-02-09T06:16:35.627Z,96144.50
2018-02-09T06:19:03.466Z,96146.20
2018-02-09T06:21:31.190Z,96143.18
2018-02-09T06:23:58.796Z,96142.48
2018-02-09T06:26:27.286Z,96144.09
2018-02-09T06:28:54.910Z,96140.12
2018-02-09T06:31:22.552Z,96143.28
2018-02-09T06:33:50.141Z,96139.15
2018-02-09T06:36:17.752Z,96145.44
2018-02-09T06:38:45.360Z,96146.20
2018-02-09T06:41:13.571Z,96147.26
2018-02-09T06:43:41.160Z,96145.65
2018-02-09T06:46:08.740Z,96144.13
2018-02-09T06:48:36.320Z,96142.63
2018-02-09T06:51:03.917Z,96140.70
2018-02-09T06:53:31.570Z,96141.20
2018-02-09T06:55:59.201Z,96138.30
2018-02-09T06:58:27.170Z,96138.28
2018-02-09T07:00:54.732Z,96138.38
2018-02-09T07:03:22.357Z,96142.17
2018-02-09T07:05:49.949Z,96143.94
2018-02-09T07:08:17.579Z,96135.53
2018-02-09T07:10:45.236Z,96132.95
2018-02-09T07:13:14.230Z,96144.78
2018-02-09T07:15:41.840Z,96138.73
2018-02-09T07:18:11.592Z,96140.36
2018-02-09T07:20:39.414Z,96137.98
2018-02-09T07:23:10.936Z,96136.29
2018-02-09T07:25:38.972Z,96132.00
2018-02-09T07:28:06.532Z,96137.00
2018-02-09T07:30:34.144Z,96141.13
2018-02-09T07:33:01.731Z,96137.95
2018-02-09T07:35:29.291Z,96136.45
2018-02-09T07:37:56.877Z,96135.70
2018-02-09T07:40:24.485Z,96136.07
2018-02-09T07:42:52.054Z,96133.97
2018-02-09T07:45:21.812Z,96129.40
2018-02-09T07:47:50.946Z,96128.57
2018-02-09T07:50:18.536Z,96126.53
2018-02-09T07:52:46.117Z,96131.13
2018-02-09T07:55:13.692Z,96125.92
2018-02-09T07:57:42.174Z,96120.69
2018-02-09T08:00:09.896Z,96122.77
2018-02-09T08:02:37.509Z,96117.81
2018-02-09T08:05:05.635Z,96119.41
2018-02-09T08:07:33.248Z,96113.13
2018-02-09T08:10:00.849Z,96115.55
2018-02-09T08:12:28.581Z,96114.89
2018-02-09T08:14:56.177Z,96119.30
2018-02-09T08:17:24.432Z,96117.50
2018-02-09T08:19:52.032Z,96113.39
2018-02-09T08:22:19.640Z,96112.73
2018-02-09T08:24:49.056Z,96111.30
2018-02-09T08:29:49.161Z,96105.25
2018-02-09T08:32:16.749Z,96109.25
2018-02-09T08:34:44.972Z,96115.29
2018-02-09T08:37:13.136Z,96115.84
2018-02-09T08:39:41.910Z,96112.96
2018-02-09T08:42:09.554Z,96114.84
2018-02-09T08:44:38.489Z,96114.52
2018-02-09T08:47:06.611Z,96106.43
2018-02-09T08:49:36.113Z,96107.31
2018-02-09T08:52:03.734Z,96100.88
2018-02-09T08:54:31.305Z,96099.27
2018-02-09T08:57:00.785Z,96100.11
2018-02-09T08:59:30.726Z,96098.96
2018-02-09T09:01:59.208Z,96097.06
2018-02-09T09:04:29.099Z,96097.06
2018-02-09T09:06:56.934Z,96095.56
2018-02-09T09:09:24.821Z,96089.91
2018-02-09T09:11:52.510Z,96090.21
2018-02-09T09:14:20.252Z,96086.84
2018-02-09T09:16:48.736Z,96081.83
2018-02-09T09:19:17.019Z,96085.41
2018-02-09T09:24:20.959Z,96076.88
2018-02-09T09:26:51.495Z,96078.16
2018-02-09T09:29:19.307Z,96078.22
2018-02-09T09:31:47.045Z,96073.58
2018-02-09T09:34:17.867Z,96074.73
2018-02-09T09:36:45.427Z,96067.32
2018-02-09T09:39:13.341Z,96070.01
2018-02-09T09:41:40.932Z,96069.95
2018-02-09T09:44:08.736Z,96069.28
2018-02-09T09:46:36.369Z,96069.63
2018-02-09T09:49:03.981Z,96068.63
2018-02-09T09:51:31.614Z,96065.72
2018-02-09T09:53:59.570Z,96067.06
2018-02-09T09:56:27.141Z,96061.67
2018-02-09T09:58:56.537Z,96065.28
2018-02-09T10:01:30.368Z,96066.72
2018-02-09T10:03:57.988Z,96059.58
2018-02-09T10:06:25.564Z,96080.49
2018-02-09T10:08:53.127Z,96065.93
2018-02-09T10:11:21.545Z,96066.02
2018-02-09T10:13:49.374Z,96064.56
2018-02-09T10:16:16.941Z,96063.15
2018-02-09T10:18:44.524Z,96054.95
2018-02-09T10:21:12.670Z,96050.32
2018-02-09T10:23:41.687Z,96047.55
2018-02-09T10:26:09.356Z,96044.77
2018-02-09T10:28:37.256Z,96051.69
2018-02-09T10:31:05.049Z,96046.12
2018-02-09T10:33:32.929Z,96041.56
2018-02-09T10:36:00.510Z,96035.55
2018-02-09T10:38:28.126Z,96033.00
2018-02-09T10:40:55.685Z,96029.57
2018-02-09T10:43:23.261Z,96023.44
2018-02-09T10:45:50.832Z,96020.80
2018-02-09T10:48:18.390Z,96015.45
2018-02-09T10:50:46.571Z,96009.11
2018-02-09T10:53:14.181Z,96005.39
2018-02-09T10:55:41.767Z,96004.56
2018-02-09T10:58:09.340Z,96005.04
2018-02-09T11:00:43.444Z,96004.56
2018-02-09T11:03:11.735Z,95998.86
2018-02-09T11:05:42.860Z,95989.27
2018-02-09T11:08:10.460Z,95991.56
2018-02-09T11:10:43.529Z,95980.00
2018-02-09T11:13:16.937Z,95981.57
2018-02-09T11:15:47.374Z,95978.48
2018-02-09T11:18:15.665Z,95974.50
2018-02-09T11:20:43.380Z,95971.80
2018-02-09T11:23:14.770Z,95971.22
2018-02-09T11:25:42.527Z,95968.75
2018-02-09T11:28:12.693Z,95975.35
2018-02-09T11:30:40.990Z,95967.84
2018-02-09T11:33:08.580Z,95964.00
2018-02-09T11:35:36.139Z,95951.13
2018-02-09T11:38:03.707Z,95958.57
2018-02-09T11:40:32.002Z,95951.52
2018-02-09T11:42:59.585Z,95953.97
2018-02-09T11:45:28.443Z,95958.23
2018-02-09T11:47:56.001Z,95958.38
2018-02-09T11:50:23.572Z,95955.13
2018-02-09T11:52:51.138Z,95950.70
2018-02-09T11:55:19.531Z,95945.39
2018-02-09T11:57:47.567Z,95944.68
2018-02-09T12:00:16.058Z,95950.09
2018-02-09T12:02:43.781Z,95942.69
2018-02-09T12:05:11.985Z,95940.60
2018-02-09T12:07:39.543Z,95942.48
2018-02-09T12:10:07.132Z,95936.03
2018-02-09T12:12:34.732Z,95926.00
2018-02-09T12:15:02.281Z,95926.70
2018-02-09T12:17:29.848Z,95921.14
2018-02-09T12:19:57.430Z,95914.13
2018-02-09T12:22:26.210Z,95920.34
2018-02-09T12:24:55.513Z,95917.47
2018-02-09T12:27:23.662Z,95920.20
2018-02-09T12:29:51.332Z,95917.67
2018-02-09T12:32:19.084Z,95911.66
2018-02-09T12:34:46.668Z,95917.13
2018-02-09T12:37:14.271Z,95921.34
2018-02-09T12:39:41.854Z,95915.59
2018-02-09T12:42:09.464Z,95915.72
2018-02-09T12:44:37.140Z,95909.51
2018-02-09T12:47:04.934Z,95904.08
2018-02-09T12:56:26.395Z,95898.66
2018-02-09T12:58:53.958Z,95897.89
2018-02-09T13:01:21.579Z,95899.22
2018-02-09T13:03:49.193Z,95898.52
2018-02-09T13:06:16.788Z,95899.69
2018-02-09T13:08:44.352Z,95898.16
2018-02-09T13:11:12.049Z,95897.36
2018-02-09T13:13:39.625Z,95891.92
2018-02-09T13:16:07.202Z,95897.35
2018-02-09T13:18:46.651Z,95894.63
2018-02-09T13:21:14.419Z,95893.96
2018-02-09T13:26:25.532Z,95888.67
2018-02-09T13:28:58.925Z,95886.28
2018-02-09T13:31:26.718Z,95882.05
2018-02-09T13:33:54.398Z,95879.27
2018-02-09T13:36:33.747Z,95876.83
2018-02-09T13:39:01.371Z,95879.13
2018-02-09T13:41:29.152Z,95887.50
2018-02-09T13:43:56.727Z,95880.52
2018-02-09T13:46:25.429Z,95880.66
2018-02-09T13:48:52.993Z,95876.70
2018-02-09T13:51:20.601Z,95878.59
2018-02-09T13:53:48.200Z,95873.98
2018-02-09T13:56:15.776Z,95879.90
2018-02-09T13:58:43.549Z,95874.12
2018-02-09T14:01:11.984Z,95873.30
2018-02-09T14:03:39.584Z,95871.59
2018-02-09T14:06:07.172Z,95870.16
2018-02-09T14:08:34.767Z,95868.40
2018-02-09T14:11:02.371Z,95867.77
2018-02-09T14:13:30.363Z,95864.94
2018-02-09T14:15:57.947Z,95864.59
2018-02-09T14:18:25.529Z,95863.55
2018-02-09T14:20:53.135Z,95864.67
2018-02-09T14:23:22.288Z,95853.50
2018-02-09T14:25:49.993Z,95848.48
2018-02-09T14:28:17.553Z,95851.11
2018-02-09T14:30:45.117Z,95850.19
2018-02-09T14:33:13.062Z,95852.58
2018-02-09T14:35:41.727Z,95849.56
2018-02-09T14:38:09.494Z,95855.06
2018-02-09T14:40:37.078Z,95850.69
2018-02-09T14:43:04.657Z,95854.43
2018-02-09T14:45:32.313Z,95853.50
2018-02-09T14:48:03.868Z,95857.31
2018-02-09T14:50:31.746Z,95854.08
2018-02-09T14:52:59.837Z,95856.63
2018-02-09T14:55:28.062Z,95855.39
2018-02-09T14:57:55.641Z,95857.33
2018-02-09T15:00:23.235Z,95858.37
2018-02-09T15:02:50.801Z,95856.20
2018-02-09T15:05:18.392Z,95849.27
2018-02-09T15:07:45.945Z,95848.89
2018-02-09T15:10:13.535Z,95853.34
2018-02-09T15:12:41.094Z,95850.97
2018-02-09T15:15:09.119Z,95852.23
2018-02-09T15:17:36.743Z,95851.67
2018-02-09T15:20:04.317Z,95851.75
2018-02-09T15:22:31.871Z,95853.25
2018-02-09T15:24:59.461Z,95854.77
2018-02-09T15:27:27.226Z,95855.11
2018-02-09T15:29:56.309Z,95850.08
2018-02-09T15:32:23.906Z,95853.92
2018-02-09T15:34:51.468Z,95852.25
2018-02-09T15:37:19.033Z,95850.64
2018-02-09T15:39:46.671Z,95849.48
2018-02-09T15:42:16.883Z,95847.71
2018-02-09T15:44:45.456Z,95846.80
2018-02-09T15:47:15.226Z,95843.72
2018-02-09T15:49:42.765Z,95846.23
2018-02-09T15:52:10.430Z,95851.02
2018-02-09T15:54:37.994Z,95847.66
2018-02-09T15:57:05.644Z,95842.19
2018-02-09T15:59:33.198Z,95848.54
2018-02-09T16:02:00.774Z,95846.91
2018-02-09T16:04:28.327Z,95848.48
2018-02-09T16:06:55.896Z,95853.70
2018-02-09T16:09:23.488Z,95849.98
2018-02-09T16:11:51.041Z,95857.24
2018-02-09T16:14:18.616Z,95850.84
2018-02-09T16:16:46.228Z,95849.91
2018-02-09T16:19:13.802Z,95851.00
2018-02-09T16:21:42.515Z,95852.69
2018-02-09T16:24:10.545Z,95850.16
2018-02-09T16:26:38.117Z,95853.14
2018-02-09T16:29:05.933Z,95855.91
2018-02-09T16:31:33.984Z,95856.86
2018-02-09T16:34:01.714Z,95856.05
2018-02-09T16:36:29.314Z,95853.68
2018-02-09T16:38:56.885Z,95851.37
2018-02-09T16:41:24.502Z,95852.17
2018-02-09T16:43:52.040Z,95853.23
2018-02-09T16:46:19.663Z,95852.45
2018-02-09T16:48:47.476Z,95848.05
2018-02-09T16:51:15.364Z,95856.47
2018-02-09T16:53:42.938Z,95856.38
2018-02-09T16:56:10.604Z,95858.72
2018-02-09T16:58:38.181Z,95861.37
2018-02-09T17:01:05.771Z,95865.91
2018-02-09T17:03:33.329Z,95868.23
2018-02-09T17:06:00.942Z,95871.42
2018-02-09T17:08:28.528Z,95870.86
2018-02-09T17:11:00.082Z,95870.69
2018-02-09T17:13:29.760Z,95873.87
2018-02-09T17:15:57.429Z,95875.13
2018-02-09T17:18:25.016Z,95873.94
2018-02-09T17:20:52.613Z,95875.73
2018-02-09T17:23:20.184Z,95868.41
2018-02-09T17:25:47.785Z,95871.09
2018-02-09T17:28:15.447Z,95866.25
2018-02-09T17:30:43.058Z,95870.25
2018-02-09T17:33:11.257Z,95877.23
2018-02-09T17:35:38.869Z,95875.90
2018-02-09T17:38:06.409Z,95874.71
2018-02-09T17:40:33.991Z,95876.89
2018-02-09T17:45:52.024Z,95876.53
2018-02-09T17:48:20.694Z,95873.33
2018-02-09T17:50:48.279Z,95878.28
2018-02-09T17:53:15.868Z,95875.08
2018-02-09T17:55:43.442Z,95876.87
2018-02-09T17:58:12.086Z,95878.32
2018-02-09T18:00:39.695Z,95882.61
2018-02-09T18:03:08.340Z,95888.34
2018-02-09T18:05:36.447Z,95887.77
2018-02-09T18:08:04.131Z,95882.80
2018-02-09T18:10:31.722Z,95891.73
2018-02-09T18:12:59.309Z,95886.39
2018-02-09T18:15:27.364Z,95892.84
2018-02-09T18:17:55.085Z,95889.12
2018-02-09T18:20:22.681Z,95889.33
2018-02-09T18:22:50.252Z,95897.47
2018-02-09T18:25:17.971Z,95899.55
2018-02-09T18:27:45.560Z,95898.95
2018-02-09T18:30:13.205Z,95903.47
2018-02-09T18:32:40.810Z,95895.13
2018-02-09T18:35:08.437Z,95894.68
2018-02-09T18:37:36.045Z,95898.42
2018-02-09T18:40:03.643Z,95891.80
2018-02-09T18:42:31.193Z,95889.78
2018-02-09T18:44:58.834Z,95891.91
2018-02-09T18:47:26.417Z,95894.36
2018-02-09T18:49:54.058Z,95890.97
2018-02-09T18:52:22.216Z,95889.23
2018-02-09T18:54:49.795Z,95890.19
2018-02-09T18:57:17.342Z,95891.66
2018-02-09T18:59:44.924Z,95884.98
2018-02-09T19:02:12.621Z,95889.56
2018-02-09T19:04:40.178Z,95891.43
2018-02-09T19:07:07.765Z,95889.34
2018-02-09T19:09:35.333Z,95883.70
2018-02-09T19:12:02.934Z,95889.09
2018-02-09T19:14:30.761Z,95884.92
2018-02-09T19:16:58.375Z,95884.51
2018-02-09T19:19:26.213Z,95888.23
2018-02-09T19:21:53.818Z,95884.04
2018-02-09T19:24:21.427Z,95888.08
2018-02-09T19:26:48.995Z,95886.99
2018-02-09T19:29:19.521Z,95888.30
2018-02-09T19:31:47.240Z,95891.63
2018-02-09T19:34:18.820Z,95890.66
2018-02-09T19:36:47.604Z,95891.80
2018-02-09T19:39:15.289Z,95886.66
2018-02-09T19:41:43.150Z,95894.36
2018-02-09T19:44:10.736Z,95894.32
2018-02-09T19:46:38.315Z,95891.67
2018-02-09T19:49:05.928Z,95889.41
2018-02-09T19:51:33.567Z,95888.02
2018-02-09T19:54:01.138Z,95885.08
2018-02-09T19:56:28.735Z,95881.88
2018-02-09T19:58:58.445Z,95882.77
2018-02-09T20:01:26.117Z,95881.45
2018-02-09T20:03:53.703Z,95883.48
2018-02-09T20:06:21.971Z,95883.31
2018-02-09T20:08:49.750Z,95879.48
2018-02-09T20:11:17.572Z,95885.37
2018-02-09T20:13:45.150Z,95880.30
2018-02-09T20:16:12.738Z,95875.86
2018-02-09T20:18:40.373Z,95872.50
2018-02-09T20:21:08.418Z,95875.41
2018-02-09T20:23:36.028Z,95872.84
2018-02-09T20:26:03.621Z,95874.10
2018-02-09T20:28:31.205Z,95867.70
2018-02-09T20:30:59.200Z,95861.20
2018-02-09T20:33:27.169Z,95861.84
2018-02-09T20:35:54.987Z,95870.94
2018-02-09T20:38:22.586Z,95864.16
2018-02-09T20:40:50.157Z,95867.03
2018-02-09T20:43:17.794Z,95873.61
2018-02-09T20:45:45.339Z,95873.47
2018-02-09T20:48:12.933Z,95872.56
2018-02-09T20:50:40.561Z,95875.28
2018-02-09T20:53:08.219Z,95872.34
2018-02-09T20:55:36.103Z,95872.67
2018-02-09T20:58:03.682Z,95874.64
2018-02-09T21:00:31.256Z,95870.86
2018-02-09T21:02:58.847Z,95870.56
2018-02-09T21:05:26.429Z,95872.86
2018-02-09T21:07:54.068Z,95871.70
2018-02-09T21:10:21.682Z,95869.86
2018-02-09T21:12:49.285Z,95862.11
2018-02-09T21:15:16.883Z,95870.91
2018-02-09T21:17:44.452Z,95869.51
2018-02-09T21:20:12.009Z,95872.59
2018-02-09T21:22:39.595Z,95873.12
2018-02-09T21:25:07.372Z,95877.25
2018-02-09T21:27:35.117Z,95876.53
2018-02-09T21:30:02.797Z,95874.62
2018-02-09T21:32:30.580Z,95869.23
2018-02-09T21:34:58.216Z,95873.03
2018-02-09T21:37:25.871Z,95869.88
2018-02-09T21:39:53.474Z,95873.87
2018-02-09T21:42:21.573Z,95870.20
2018-02-09T21:44:49.157Z,95870.34
2018-02-09T21:47:17.026Z,95869.86
2018-02-09T21:49:44.586Z,95870.41
2018-02-09T21:52:12.164Z,95873.73
2018-02-09T21:54:39.760Z,95871.16
2018-02-09T21:57:07.530Z,95875.17
2018-02-09T21:59:35.179Z,95874.61
2018-02-09T22:02:02.754Z,95875.34
2018-02-09T22:04:30.312Z,95874.14
2018-02-09T22:06:57.993Z,95873.34
2018-02-09T22:09:25.785Z,95876.32
2018-02-09T22:11:53.514Z,95878.06
2018-02-09T22:14:21.080Z,95875.18
2018-02-09T22:16:48.647Z,95876.05
2018-02-09T22:19:16.281Z,95878.20
2018-02-09T22:21:43.838Z,95876.80
2018-02-09T22:24:11.465Z,95873.80
2018-02-09T22:26:39.050Z,95873.39
2018-02-09T22:29:06.634Z,95874.15
2018-02-09T22:31:34.188Z,95878.09
2018-02-09T22:34:01.742Z,95874.33
2018-02-09T22:36:29.312Z,95874.99
2018-02-09T22:38:56.869Z,95874.67
2018-02-09T22:41:24.869Z,95875.41
2018-02-09T22:43:52.473Z,95871.77
2018-02-09T22:46:20.057Z,95871.80
2018-02-09T22:48:47.623Z,95863.39
2018-02-09T22:51:15.245Z,95866.03
2018-02-09T22:53:42.831Z,95862.06
2018-02-09T22:56:10.476Z,95863.05
2018-02-09T22:58:38.059Z,95863.19
2018-02-09T23:01:05.637Z,95870.34
2018-02-09T23:03:33.251Z,95868.98
2018-02-09T23:06:00.861Z,95862.75
2018-02-09T23:08:28.451Z,95870.73
2018-02-09T23:10:56.051Z,95868.20
2018-02-09T23:13:23.629Z,95866.67
2018-02-09T23:15:51.197Z,95871.98
2018-02-09T23:18:18.797Z,95866.98
2018-02-09T23:20:46.398Z,95864.66
2018-02-09T23:23:13.965Z,95860.75
2018-02-09T23:25:41.516Z,95869.17
2018-02-09T23:28:09.100Z,95864.06
2018-02-09T23:30:38.560Z,95859.66
2018-02-09T23:33:08.119Z,95860.27
2018-02-09T23:35:35.689Z,95857.45
2018-02-09T23:38:03.621Z,95858.80
2018-02-09T23:40:31.197Z,95863.15
2018-02-09T23:42:59.028Z,95861.13
2018-02-09T23:45:26.806Z,95857.54
2018-02-09T23:47:54.361Z,95854.28
2018-02-09T23:50:21.913Z,95856.87
2018-02-09T23:52:49.481Z,95861.35
2018-02-09T23:55:17.058Z,95859.60
2018-02-09T23:57:44.640Z,95861.77
